Airport Name : Coronel Enrique Soto Cano AB

Other Name : Comayagua

ICAO : MHSC

IATA : XPL

FAA :

Latitude : 14.382369

Longitude : -87.621161

Country : Honduras

Local Date and Time : 20 Oct 2020 16:30

 

TAF (Terminal Aerodrome Forecast)

TAF MHSC 202100Z 2021/2203 36010KT 9999 SCT060 BKN100 QNH2982INS BECMG 2022/2023 36009KT 8000 -SHRA VCTS BKN055CB BKN100 QNH2984INS BECMG 2102/2103 34006KT 9999 NSW FEW070 SCT120 QNH2990INS BECMG 2108/2109 VRB05KT 8000 BR SCT012 SCT080 QNH2996INS BECMG 2114/2115 34009KT 9999 NSW FEW018 FEW080 SCT120 QNH2993INS BECMG 2120/2121 36010G15KT 9999 VCSH SCT080 BKN120 QNH2985INS TX30/2021Z TN21/2112Z

 

METAR (METeorological Aerodrome Report)

MHSC 202155Z VRB04KT 9999 BKN040CB BKN070 29/19 A2979 RMK AO2A SLPNO RVRNO PWINO TSNO $

MHSC 202055Z VRB03KT 9999 BKN050CB BKN070 30/18 A2980 RMK AO2A SLPNO RVRNO PWINO TSNO $

MHSC 201958Z VRB03KT 9999 BKN050CB 29/18 A2982 RMK AO2A SLPNO RVRNO PWINO TSNO $

MHSC 201858Z 02006KT 9999 SCT050 SCT080 30/18 2985 RMK AO2A SLPNO ALSTG ESTMD RVRNO PWINO TSNO $

To Charter a Jet Click here.